sensor_id;sensor_type;location;lat;lon;timestamp;temperature;humidity
19829;DHT22;10075;50.924;4.396;2022-09-03T00:02:22;21.50;75.10
19829;DHT22;10075;50.924;4.396;2022-09-03T00:04:57;21.60;76.10
19829;DHT22;10075;50.924;4.396;2022-09-03T00:07:31;21.50;76.50
19829;DHT22;10075;50.924;4.396;2022-09-03T00:10:03;21.50;76.70
19829;DHT22;10075;50.924;4.396;2022-09-03T00:12:36;21.50;76.50
19829;DHT22;10075;50.924;4.396;2022-09-03T00:15:07;21.50;76.50
19829;DHT22;10075;50.924;4.396;2022-09-03T00:17:39;21.50;76.00
19829;DHT22;10075;50.924;4.396;2022-09-03T00:20:11;21.50;76.70
19829;DHT22;10075;50.924;4.396;2022-09-03T00:22:41;21.50;75.40
19829;DHT22;10075;50.924;4.396;2022-09-03T00:25:14;21.50;75.20
19829;DHT22;10075;50.924;4.396;2022-09-03T00:27:44;21.50;75.40
19829;DHT22;10075;50.924;4.396;2022-09-03T00:30:16;21.50;75.20
19829;DHT22;10075;50.924;4.396;2022-09-03T00:32:48;21.60;75.10
19829;DHT22;10075;50.924;4.396;2022-09-03T00:35:21;21.60;74.90
19829;DHT22;10075;50.924;4.396;2022-09-03T00:37:50;21.60;75.00
19829;DHT22;10075;50.924;4.396;2022-09-03T00:43:16;21.60;75.60
19829;DHT22;10075;50.924;4.396;2022-09-03T00:45:52;21.50;75.90
19829;DHT22;10075;50.924;4.396;2022-09-03T00:48:25;21.50;75.90
19829;DHT22;10075;50.924;4.396;2022-09-03T00:51:08;21.50;75.90
19829;DHT22;10075;50.924;4.396;2022-09-03T00:53:42;21.50;75.80
19829;DHT22;10075;50.924;4.396;2022-09-03T00:56:22;21.50;75.70
19829;DHT22;10075;50.924;4.396;2022-09-03T00:59:06;21.50;75.60
19829;DHT22;10075;50.924;4.396;2022-09-03T01:01:45;21.40;75.50
19829;DHT22;10075;50.924;4.396;2022-09-03T01:04:38;21.40;75.70
19829;DHT22;10075;50.924;4.396;2022-09-03T01:07:14;21.40;75.60
19829;DHT22;10075;50.924;4.396;2022-09-03T01:09:49;21.40;75.70
19829;DHT22;10075;50.924;4.396;2022-09-03T01:12:28;21.40;75.90
19829;DHT22;10075;50.924;4.396;2022-09-03T01:15:07;21.40;76.20
19829;DHT22;10075;50.924;4.396;2022-09-03T01:17:45;21.40;76.40
19829;DHT22;10075;50.924;4.396;2022-09-03T01:20:31;21.40;76.00
19829;DHT22;10075;50.924;4.396;2022-09-03T01:23:26;21.40;76.20
19829;DHT22;10075;50.924;4.396;2022-09-03T01:26:09;21.40;76.20
19829;DHT22;10075;50.924;4.396;2022-09-03T01:28:51;21.30;76.30
19829;DHT22;10075;50.924;4.396;2022-09-03T01:31:29;21.40;76.60
19829;DHT22;10075;50.924;4.396;2022-09-03T01:34:04;21.30;77.00
19829;DHT22;10075;50.924;4.396;2022-09-03T01:36:38;21.30;77.50
19829;DHT22;10075;50.924;4.396;2022-09-03T01:39:12;21.20;77.80
19829;DHT22;10075;50.924;4.396;2022-09-03T01:41:50;21.20;78.00
19829;DHT22;10075;50.924;4.396;2022-09-03T01:44:55;21.20;78.00
19829;DHT22;10075;50.924;4.396;2022-09-03T01:47:32;21.20;77.80
19829;DHT22;10075;50.924;4.396;2022-09-03T01:50:06;21.20;77.80
19829;DHT22;10075;50.924;4.396;2022-09-03T01:52:42;21.20;77.70
19829;DHT22;10075;50.924;4.396;2022-09-03T01:55:22;21.20;77.70
19829;DHT22;10075;50.924;4.396;2022-09-03T01:57:54;21.20;77.40
19829;DHT22;10075;50.924;4.396;2022-09-03T02:00:25;21.20;77.30
19829;DHT22;10075;50.924;4.396;2022-09-03T02:03:01;21.20;77.00
19829;DHT22;10075;50.924;4.396;2022-09-03T02:05:30;21.20;76.70
19829;DHT22;10075;50.924;4.396;2022-09-03T02:08:02;21.20;76.40
19829;DHT22;10075;50.924;4.396;2022-09-03T02:10:33;21.30;76.60
19829;DHT22;10075;50.924;4.396;2022-09-03T02:13:05;21.20;77.10
19829;DHT22;10075;50.924;4.396;2022-09-03T02:15:34;21.20;77.80
19829;DHT22;10075;50.924;4.396;2022-09-03T02:18:06;21.20;78.30
19829;DHT22;10075;50.924;4.396;2022-09-03T02:20:36;21.10;78.70
19829;DHT22;10075;50.924;4.396;2022-09-03T02:23:04;21.10;78.90
19829;DHT22;10075;50.924;4.396;2022-09-03T02:25:34;21.10;79.20
19829;DHT22;10075;50.924;4.396;2022-09-03T02:28:04;21.10;79.20
19829;DHT22;10075;50.924;4.396;2022-09-03T02:30:33;21.10;79.20
19829;DHT22;10075;50.924;4.396;2022-09-03T02:33:00;21.00;79.10
19829;DHT22;10075;50.924;4.396;2022-09-03T02:35:28;21.00;79.20
19829;DHT22;10075;50.924;4.396;2022-09-03T02:37:55;21.00;79.40
19829;DHT22;10075;50.924;4.396;2022-09-03T02:40:22;21.00;79.60
19829;DHT22;10075;50.924;4.396;2022-09-03T02:42:49;21.00;79.70
19829;DHT22;10075;50.924;4.396;2022-09-03T02:45:23;21.00;79.90
19829;DHT22;10075;50.924;4.396;2022-09-03T02:47:59;21.00;80.00
19829;DHT22;10075;50.924;4.396;2022-09-03T02:50:26;21.00;80.10
19829;DHT22;10075;50.924;4.396;2022-09-03T02:52:53;21.00;80.00
19829;DHT22;10075;50.924;4.396;2022-09-03T02:55:20;20.90;80.00
19829;DHT22;10075;50.924;4.396;2022-09-03T02:57:48;21.00;80.20
19829;DHT22;10075;50.924;4.396;2022-09-03T03:00:16;21.00;80.40
19829;DHT22;10075;50.924;4.396;2022-09-03T03:02:43;21.00;80.50
19829;DHT22;10075;50.924;4.396;2022-09-03T03:05:20;21.00;80.50
19829;DHT22;10075;50.924;4.396;2022-09-03T03:07:48;21.10;80.80
19829;DHT22;10075;50.924;4.396;2022-09-03T03:10:15;21.10;81.30
19829;DHT22;10075;50.924;4.396;2022-09-03T03:12:42;21.00;81.60
19829;DHT22;10075;50.924;4.396;2022-09-03T03:15:10;21.00;82.10
19829;DHT22;10075;50.924;4.396;2022-09-03T03:17:37;21.00;82.60
19829;DHT22;10075;50.924;4.396;2022-09-03T03:20:04;21.00;83.00
19829;DHT22;10075;50.924;4.396;2022-09-03T03:22:33;21.00;83.50
19829;DHT22;10075;50.924;4.396;2022-09-03T03:25:00;21.00;84.00
19829;DHT22;10075;50.924;4.396;2022-09-03T03:27:27;21.00;84.60
19829;DHT22;10075;50.924;4.396;2022-09-03T03:29:54;21.00;85.30
19829;DHT22;10075;50.924;4.396;2022-09-03T03:32:22;21.00;85.50
19829;DHT22;10075;50.924;4.396;2022-09-03T03:34:49;21.00;85.60
19829;DHT22;10075;50.924;4.396;2022-09-03T03:37:16;21.00;85.70
19829;DHT22;10075;50.924;4.396;2022-09-03T03:39:44;21.00;86.00
19829;DHT22;10075;50.924;4.396;2022-09-03T03:42:11;21.00;86.40
19829;DHT22;10075;50.924;4.396;2022-09-03T03:44:39;21.00;86.70
19829;DHT22;10075;50.924;4.396;2022-09-03T03:47:06;21.00;86.80
19829;DHT22;10075;50.924;4.396;2022-09-03T03:49:34;21.00;87.00
19829;DHT22;10075;50.924;4.396;2022-09-03T03:52:01;21.00;87.10
19829;DHT22;10075;50.924;4.396;2022-09-03T03:54:29;21.00;87.20
19829;DHT22;10075;50.924;4.396;2022-09-03T03:56:57;21.00;87.30
19829;DHT22;10075;50.924;4.396;2022-09-03T03:59:24;21.00;87.50
19829;DHT22;10075;50.924;4.396;2022-09-03T04:01:53;21.00;87.80
19829;DHT22;10075;50.924;4.396;2022-09-03T04:04:20;21.00;88.70
19829;DHT22;10075;50.924;4.396;2022-09-03T04:06:47;21.00;89.20
19829;DHT22;10075;50.924;4.396;2022-09-03T04:09:14;21.00;89.80
19829;DHT22;10075;50.924;4.396;2022-09-03T04:11:41;21.00;90.10
19829;DHT22;10075;50.924;4.396;2022-09-03T04:14:09;21.10;90.40
19829;DHT22;10075;50.924;4.396;2022-09-03T04:16:37;21.10;90.60
19829;DHT22;10075;50.924;4.396;2022-09-03T04:19:04;21.10;91.10
19829;DHT22;10075;50.924;4.396;2022-09-03T04:21:31;21.10;91.50
19829;DHT22;10075;50.924;4.396;2022-09-03T04:23:58;21.20;91.80
19829;DHT22;10075;50.924;4.396;2022-09-03T04:26:26;21.30;92.20
19829;DHT22;10075;50.924;4.396;2022-09-03T04:28:56;21.30;93.10
19829;DHT22;10075;50.924;4.396;2022-09-03T04:31:25;21.20;93.80
19829;DHT22;10075;50.924;4.396;2022-09-03T04:33:52;21.30;94.30
19829;DHT22;10075;50.924;4.396;2022-09-03T04:36:21;21.20;94.40
19829;DHT22;10075;50.924;4.396;2022-09-03T04:38:50;21.20;95.30
19829;DHT22;10075;50.924;4.396;2022-09-03T04:41:19;21.20;96.10
19829;DHT22;10075;50.924;4.396;2022-09-03T04:43:49;21.20;96.60
19829;DHT22;10075;50.924;4.396;2022-09-03T04:46:16;21.10;97.10
19829;DHT22;10075;50.924;4.396;2022-09-03T04:48:48;21.10;97.50
19829;DHT22;10075;50.924;4.396;2022-09-03T04:51:18;21.10;97.80
19829;DHT22;10075;50.924;4.396;2022-09-03T04:53:47;21.10;98.10
19829;DHT22;10075;50.924;4.396;2022-09-03T04:56:18;21.00;98.40
19829;DHT22;10075;50.924;4.396;2022-09-03T04:58:46;21.00;98.80
19829;DHT22;10075;50.924;4.396;2022-09-03T05:01:16;20.90;99.20
19829;DHT22;10075;50.924;4.396;2022-09-03T05:03:43;20.90;99.40
19829;DHT22;10075;50.924;4.396;2022-09-03T05:06:12;21.00;99.90
19829;DHT22;10075;50.924;4.396;2022-09-03T05:08:42;20.90;99.90
19829;DHT22;10075;50.924;4.396;2022-09-03T05:11:11;21.00;99.90
19829;DHT22;10075;50.924;4.396;2022-09-03T05:13:38;21.00;99.90
19829;DHT22;10075;50.924;4.396;2022-09-03T05:16:06;21.00;99.90
19829;DHT22;10075;50.924;4.396;2022-09-03T05:18:34;20.90;99.90
19829;DHT22;10075;50.924;4.396;2022-09-03T05:21:03;20.90;99.90
19829;DHT22;10075;50.924;4.396;2022-09-03T05:23:34;21.00;99.90
19829;DHT22;10075;50.924;4.396;2022-09-03T05:26:05;21.00;99.90
19829;DHT22;10075;50.924;4.396;2022-09-03T05:28:35;21.00;99.90
19829;DHT22;10075;50.924;4.396;2022-09-03T05:31:03;21.00;99.90
19829;DHT22;10075;50.924;4.396;2022-09-03T05:33:32;20.90;99.90
19829;DHT22;10075;50.924;4.396;2022-09-03T05:36:00;20.90;99.90
19829;DHT22;10075;50.924;4.396;2022-09-03T05:38:27;20.90;99.90
19829;DHT22;10075;50.924;4.396;2022-09-03T05:40:58;20.90;99.90
19829;DHT22;10075;50.924;4.396;2022-09-03T05:43:26;20.90;99.90
19829;DHT22;10075;50.924;4.396;2022-09-03T05:45:57;20.90;99.90
19829;DHT22;10075;50.924;4.396;2022-09-03T05:48:25;20.80;99.90
19829;DHT22;10075;50.924;4.396;2022-09-03T05:50:58;20.80;99.90
19829;DHT22;10075;50.924;4.396;2022-09-03T05:53:26;20.80;99.90
19829;DHT22;10075;50.924;4.396;2022-09-03T05:55:58;20.70;99.90
19829;DHT22;10075;50.924;4.396;2022-09-03T05:58:29;20.80;99.90
19829;DHT22;10075;50.924;4.396;2022-09-03T06:00:56;20.80;99.90
19829;DHT22;10075;50.924;4.396;2022-09-03T06:03:24;20.70;99.90
19829;DHT22;10075;50.924;4.396;2022-09-03T06:05:51;20.80;99.90
19829;DHT22;10075;50.924;4.396;2022-09-03T06:08:19;20.80;99.90
19829;DHT22;10075;50.924;4.396;2022-09-03T06:10:46;20.90;99.90
19829;DHT22;10075;50.924;4.396;2022-09-03T06:13:15;21.00;99.90
19829;DHT22;10075;50.924;4.396;2022-09-03T06:15:42;21.00;99.90
19829;DHT22;10075;50.924;4.396;2022-09-03T06:18:09;21.10;99.90
19829;DHT22;10075;50.924;4.396;2022-09-03T06:20:36;21.20;99.90
19829;DHT22;10075;50.924;4.396;2022-09-03T06:23:03;21.30;99.90
19829;DHT22;10075;50.924;4.396;2022-09-03T06:25:30;21.40;99.90
19829;DHT22;10075;50.924;4.396;2022-09-03T06:27:57;21.40;99.90
19829;DHT22;10075;50.924;4.396;2022-09-03T06:30:26;21.50;99.90
19829;DHT22;10075;50.924;4.396;2022-09-03T06:32:55;21.60;99.90
19829;DHT22;10075;50.924;4.396;2022-09-03T06:35:23;21.60;99.90
19829;DHT22;10075;50.924;4.396;2022-09-03T06:37:51;21.60;99.90
19829;DHT22;10075;50.924;4.396;2022-09-03T06:40:18;21.70;99.90
19829;DHT22;10075;50.924;4.396;2022-09-03T06:42:55;21.70;99.90
19829;DHT22;10075;50.924;4.396;2022-09-03T06:45:28;21.70;99.90
19829;DHT22;10075;50.924;4.396;2022-09-03T06:47:54;21.80;99.90
19829;DHT22;10075;50.924;4.396;2022-09-03T06:50:21;21.80;99.90
19829;DHT22;10075;50.924;4.396;2022-09-03T06:52:50;21.80;99.90
19829;DHT22;10075;50.924;4.396;2022-09-03T06:55:20;21.90;99.90
19829;DHT22;10075;50.924;4.396;2022-09-03T06:57:47;21.90;99.90
19829;DHT22;10075;50.924;4.396;2022-09-03T07:00:16;22.00;99.90
19829;DHT22;10075;50.924;4.396;2022-09-03T07:02:44;22.00;99.90
19829;DHT22;10075;50.924;4.396;2022-09-03T07:05:13;22.10;99.90
19829;DHT22;10075;50.924;4.396;2022-09-03T07:07:40;22.20;99.90
19829;DHT22;10075;50.924;4.396;2022-09-03T07:10:09;22.20;99.90
19829;DHT22;10075;50.924;4.396;2022-09-03T07:12:36;22.30;99.90
19829;DHT22;10075;50.924;4.396;2022-09-03T07:15:03;22.30;99.90
19829;DHT22;10075;50.924;4.396;2022-09-03T07:17:30;22.40;99.90
19829;DHT22;10075;50.924;4.396;2022-09-03T07:19:59;22.40;99.90
19829;DHT22;10075;50.924;4.396;2022-09-03T07:22:26;22.60;99.90
19829;DHT22;10075;50.924;4.396;2022-09-03T07:24:53;22.60;99.90
19829;DHT22;10075;50.924;4.396;2022-09-03T07:27:20;22.70;99.90
19829;DHT22;10075;50.924;4.396;2022-09-03T07:29:47;22.80;99.90
19829;DHT22;10075;50.924;4.396;2022-09-03T07:32:14;22.90;99.90
19829;DHT22;10075;50.924;4.396;2022-09-03T07:34:41;23.10;99.90
19829;DHT22;10075;50.924;4.396;2022-09-03T07:37:09;23.30;99.90
19829;DHT22;10075;50.924;4.396;2022-09-03T07:39:36;23.50;99.70
19829;DHT22;10075;50.924;4.396;2022-09-03T07:42:05;23.60;99.30
19829;DHT22;10075;50.924;4.396;2022-09-03T07:44:35;23.70;98.90
19829;DHT22;10075;50.924;4.396;2022-09-03T07:47:02;23.90;98.60
19829;DHT22;10075;50.924;4.396;2022-09-03T07:49:30;24.00;98.10
19829;DHT22;10075;50.924;4.396;2022-09-03T07:51:57;24.10;97.80
19829;DHT22;10075;50.924;4.396;2022-09-03T07:54:26;24.30;97.30
19829;DHT22;10075;50.924;4.396;2022-09-03T07:56:53;24.50;97.00
19829;DHT22;10075;50.924;4.396;2022-09-03T07:59:20;24.60;96.80
19829;DHT22;10075;50.924;4.396;2022-09-03T08:01:48;24.70;96.30
19829;DHT22;10075;50.924;4.396;2022-09-03T08:04:15;24.80;95.80
19829;DHT22;10075;50.924;4.396;2022-09-03T08:06:42;25.00;95.30
19829;DHT22;10075;50.924;4.396;2022-09-03T08:09:11;25.10;94.70
19829;DHT22;10075;50.924;4.396;2022-09-03T08:11:41;25.20;94.00
19829;DHT22;10075;50.924;4.396;2022-09-03T08:14:10;25.30;93.60
19829;DHT22;10075;50.924;4.396;2022-09-03T08:16:38;25.30;93.20
19829;DHT22;10075;50.924;4.396;2022-09-03T08:19:06;25.40;92.90
19829;DHT22;10075;50.924;4.396;2022-09-03T08:21:33;25.50;92.50
19829;DHT22;10075;50.924;4.396;2022-09-03T08:24:01;25.70;92.30
19829;DHT22;10075;50.924;4.396;2022-09-03T08:26:29;25.70;91.80
19829;DHT22;10075;50.924;4.396;2022-09-03T08:28:58;25.70;91.60
19829;DHT22;10075;50.924;4.396;2022-09-03T08:31:26;25.80;91.30
19829;DHT22;10075;50.924;4.396;2022-09-03T08:33:54;25.80;91.30
19829;DHT22;10075;50.924;4.396;2022-09-03T08:36:24;25.80;91.20
19829;DHT22;10075;50.924;4.396;2022-09-03T08:38:52;25.80;91.30
19829;DHT22;10075;50.924;4.396;2022-09-03T08:41:24;25.80;91.20
19829;DHT22;10075;50.924;4.396;2022-09-03T08:44:08;25.80;91.10
19829;DHT22;10075;50.924;4.396;2022-09-03T08:46:46;25.90;91.30
19829;DHT22;10075;50.924;4.396;2022-09-03T08:49:16;25.90;91.20
19829;DHT22;10075;50.924;4.396;2022-09-03T08:51:46;26.00;91.00
19829;DHT22;10075;50.924;4.396;2022-09-03T08:54:14;26.00;91.00
19829;DHT22;10075;50.924;4.396;2022-09-03T08:56:42;26.00;91.20
19829;DHT22;10075;50.924;4.396;2022-09-03T08:59:11;25.90;91.20
19829;DHT22;10075;50.924;4.396;2022-09-03T09:01:46;25.90;91.30
19829;DHT22;10075;50.924;4.396;2022-09-03T09:04:29;26.00;91.30
19829;DHT22;10075;50.924;4.396;2022-09-03T09:07:05;26.10;91.30
19829;DHT22;10075;50.924;4.396;2022-09-03T09:09:42;26.20;91.20
19829;DHT22;10075;50.924;4.396;2022-09-03T09:12:20;26.30;91.10
19829;DHT22;10075;50.924;4.396;2022-09-03T09:15:03;26.40;91.10
19829;DHT22;10075;50.924;4.396;2022-09-03T09:17:44;26.60;90.80
19829;DHT22;10075;50.924;4.396;2022-09-03T09:20:23;26.70;90.50
19829;DHT22;10075;50.924;4.396;2022-09-03T09:22:54;26.70;90.60
19829;DHT22;10075;50.924;4.396;2022-09-03T09:25:24;26.80;90.60
19829;DHT22;10075;50.924;4.396;2022-09-03T09:27:55;26.80;90.60
19829;DHT22;10075;50.924;4.396;2022-09-03T09:30:26;26.80;90.60
19829;DHT22;10075;50.924;4.396;2022-09-03T09:32:54;26.80;90.50
19829;DHT22;10075;50.924;4.396;2022-09-03T09:35:21;26.80;90.30
19829;DHT22;10075;50.924;4.396;2022-09-03T09:37:50;26.80;90.50
19829;DHT22;10075;50.924;4.396;2022-09-03T09:40:25;26.80;89.90
19829;DHT22;10075;50.924;4.396;2022-09-03T09:43:06;26.80;90.00
19829;DHT22;10075;50.924;4.396;2022-09-03T09:45:38;26.60;90.60
19829;DHT22;10075;50.924;4.396;2022-09-03T09:48:12;26.60;90.70
19829;DHT22;10075;50.924;4.396;2022-09-03T09:50:41;26.70;90.70
19829;DHT22;10075;50.924;4.396;2022-09-03T09:53:10;26.70;90.60
19829;DHT22;10075;50.924;4.396;2022-09-03T09:55:52;26.70;90.40
19829;DHT22;10075;50.924;4.396;2022-09-03T09:58:21;26.70;90.50
19829;DHT22;10075;50.924;4.396;2022-09-03T10:00:57;26.70;91.00
19829;DHT22;10075;50.924;4.396;2022-09-03T10:03:25;26.90;90.60
19829;DHT22;10075;50.924;4.396;2022-09-03T10:06:00;27.00;90.30
19829;DHT22;10075;50.924;4.396;2022-09-03T10:08:49;27.20;89.20
19829;DHT22;10075;50.924;4.396;2022-09-03T10:11:17;27.20;90.10
19829;DHT22;10075;50.924;4.396;2022-09-03T10:13:46;27.30;89.30
19829;DHT22;10075;50.924;4.396;2022-09-03T10:16:21;27.70;88.10
19829;DHT22;10075;50.924;4.396;2022-09-03T10:18:57;28.00;87.40
19829;DHT22;10075;50.924;4.396;2022-09-03T10:21:31;28.10;86.20
19829;DHT22;10075;50.924;4.396;2022-09-03T10:27:06;28.20;85.90
19829;DHT22;10075;50.924;4.396;2022-09-03T10:29:35;28.50;84.80
19829;DHT22;10075;50.924;4.396;2022-09-03T10:32:19;28.70;84.30
19829;DHT22;10075;50.924;4.396;2022-09-03T10:34:58;28.50;84.80
19829;DHT22;10075;50.924;4.396;2022-09-03T10:37:34;28.50;84.10
19829;DHT22;10075;50.924;4.396;2022-09-03T10:40:17;28.70;83.70
19829;DHT22;10075;50.924;4.396;2022-09-03T10:42:53;29.00;84.10
19829;DHT22;10075;50.924;4.396;2022-09-03T10:45:31;29.00;82.30
19829;DHT22;10075;50.924;4.396;2022-09-03T10:48:34;29.20;82.70
19829;DHT22;10075;50.924;4.396;2022-09-03T10:51:12;29.50;81.60
19829;DHT22;10075;50.924;4.396;2022-09-03T10:53:57;29.70;80.80
19829;DHT22;10075;50.924;4.396;2022-09-03T10:56:31;29.70;79.90
19829;DHT22;10075;50.924;4.396;2022-09-03T10:59:16;29.50;81.50
19829;DHT22;10075;50.924;4.396;2022-09-03T11:01:51;29.50;82.00
19829;DHT22;10075;50.924;4.396;2022-09-03T11:04:27;29.70;81.90
19829;DHT22;10075;50.924;4.396;2022-09-03T11:07:02;29.80;81.20
19829;DHT22;10075;50.924;4.396;2022-09-03T11:09:35;30.00;81.10
19829;DHT22;10075;50.924;4.396;2022-09-03T11:12:07;30.20;80.60
19829;DHT22;10075;50.924;4.396;2022-09-03T11:14:41;30.40;78.40
19829;DHT22;10075;50.924;4.396;2022-09-03T11:17:12;30.60;78.70
19829;DHT22;10075;50.924;4.396;2022-09-03T11:19:46;30.70;79.20
19829;DHT22;10075;50.924;4.396;2022-09-03T11:22:16;30.70;78.00
19829;DHT22;10075;50.924;4.396;2022-09-03T11:24:48;30.60;78.00
19829;DHT22;10075;50.924;4.396;2022-09-03T11:27:25;30.60;78.20
19829;DHT22;10075;50.924;4.396;2022-09-03T11:29:59;30.40;78.00
19829;DHT22;10075;50.924;4.396;2022-09-03T11:32:38;30.10;77.50
19829;DHT22;10075;50.924;4.396;2022-09-03T11:35:15;29.80;78.40
19829;DHT22;10075;50.924;4.396;2022-09-03T11:37:51;29.40;79.80
19829;DHT22;10075;50.924;4.396;2022-09-03T11:40:19;29.00;81.60
19829;DHT22;10075;50.924;4.396;2022-09-03T11:43:04;28.90;82.70
19829;DHT22;10075;50.924;4.396;2022-09-03T11:45:36;29.00;82.90
19829;DHT22;10075;50.924;4.396;2022-09-03T11:48:27;29.00;82.80
19829;DHT22;10075;50.924;4.396;2022-09-03T11:50:57;29.00;82.00
19829;DHT22;10075;50.924;4.396;2022-09-03T11:53:26;29.10;80.90
19829;DHT22;10075;50.924;4.396;2022-09-03T11:55:58;29.20;81.50
19829;DHT22;10075;50.924;4.396;2022-09-03T11:58:29;29.20;80.40
19829;DHT22;10075;50.924;4.396;2022-09-03T12:00:58;29.20;80.10
19829;DHT22;10075;50.924;4.396;2022-09-03T12:03:28;29.20;80.80
19829;DHT22;10075;50.924;4.396;2022-09-03T12:09:08;29.10;82.00
19829;DHT22;10075;50.924;4.396;2022-09-03T12:11:47;29.00;82.70
19829;DHT22;10075;50.924;4.396;2022-09-03T12:14:23;29.00;82.30
19829;DHT22;10075;50.924;4.396;2022-09-03T12:16:59;29.10;82.00
19829;DHT22;10075;50.924;4.396;2022-09-03T12:19:36;29.20;81.40
19829;DHT22;10075;50.924;4.396;2022-09-03T12:22:05;29.50;80.50
19829;DHT22;10075;50.924;4.396;2022-09-03T12:24:33;29.60;79.80
19829;DHT22;10075;50.924;4.396;2022-09-03T12:27:02;29.70;80.70
19829;DHT22;10075;50.924;4.396;2022-09-03T12:29:30;29.80;80.70
19829;DHT22;10075;50.924;4.396;2022-09-03T12:32:06;30.00;80.00
19829;DHT22;10075;50.924;4.396;2022-09-03T12:34:33;30.20;78.50
19829;DHT22;10075;50.924;4.396;2022-09-03T12:37:00;30.30;77.10
19829;DHT22;10075;50.924;4.396;2022-09-03T12:39:29;30.40;75.90
19829;DHT22;10075;50.924;4.396;2022-09-03T12:42:00;30.30;76.80
19829;DHT22;10075;50.924;4.396;2022-09-03T12:44:30;30.30;78.00
19829;DHT22;10075;50.924;4.396;2022-09-03T12:47:03;30.40;78.20
19829;DHT22;10075;50.924;4.396;2022-09-03T12:49:34;30.50;78.00
19829;DHT22;10075;50.924;4.396;2022-09-03T12:52:07;30.70;77.10
19829;DHT22;10075;50.924;4.396;2022-09-03T12:54:41;30.90;77.20
19829;DHT22;10075;50.924;4.396;2022-09-03T12:57:10;30.90;77.50
19829;DHT22;10075;50.924;4.396;2022-09-03T12:59:39;31.10;73.80
19829;DHT22;10075;50.924;4.396;2022-09-03T13:02:13;31.20;73.00
19829;DHT22;10075;50.924;4.396;2022-09-03T13:04:41;31.30;73.10
19829;DHT22;10075;50.924;4.396;2022-09-03T13:07:13;31.40;73.30
19829;DHT22;10075;50.924;4.396;2022-09-03T13:09:47;31.50;73.50
19829;DHT22;10075;50.924;4.396;2022-09-03T13:12:22;31.60;72.40
19829;DHT22;10075;50.924;4.396;2022-09-03T13:14:50;31.70;71.00
19829;DHT22;10075;50.924;4.396;2022-09-03T13:20:29;32.10;70.40
19829;DHT22;10075;50.924;4.396;2022-09-03T13:23:12;32.10;70.30
19829;DHT22;10075;50.924;4.396;2022-09-03T13:25:51;32.20;70.40
19829;DHT22;10075;50.924;4.396;2022-09-03T13:28:30;32.20;70.70
19829;DHT22;10075;50.924;4.396;2022-09-03T13:31:09;32.20;70.00
19829;DHT22;10075;50.924;4.396;2022-09-03T13:33:41;32.10;70.90
19829;DHT22;10075;50.924;4.396;2022-09-03T13:36:14;32.00;71.00
19829;DHT22;10075;50.924;4.396;2022-09-03T13:38:49;31.90;70.50
19829;DHT22;10075;50.924;4.396;2022-09-03T13:41:29;31.80;70.40
19829;DHT22;10075;50.924;4.396;2022-09-03T13:44:02;31.80;71.70
19829;DHT22;10075;50.924;4.396;2022-09-03T13:46:40;31.70;71.40
19829;DHT22;10075;50.924;4.396;2022-09-03T13:49:16;31.80;71.50
19829;DHT22;10075;50.924;4.396;2022-09-03T13:52:04;31.90;71.30
19829;DHT22;10075;50.924;4.396;2022-09-03T13:54:38;32.10;70.30
19829;DHT22;10075;50.924;4.396;2022-09-03T13:57:29;32.40;69.50
19829;DHT22;10075;50.924;4.396;2022-09-03T14:00:02;32.40;69.50
19829;DHT22;10075;50.924;4.396;2022-09-03T14:02:37;32.50;68.70
19829;DHT22;10075;50.924;4.396;2022-09-03T14:05:13;32.60;68.00
19829;DHT22;10075;50.924;4.396;2022-09-03T14:07:57;32.60;68.00
19829;DHT22;10075;50.924;4.396;2022-09-03T14:10:36;32.50;67.80
19829;DHT22;10075;50.924;4.396;2022-09-03T14:13:18;32.30;68.60
19829;DHT22;10075;50.924;4.396;2022-09-03T14:15:54;32.10;68.60
19829;DHT22;10075;50.924;4.396;2022-09-03T14:18:34;32.10;68.90
19829;DHT22;10075;50.924;4.396;2022-09-03T14:21:07;32.00;70.10
19829;DHT22;10075;50.924;4.396;2022-09-03T14:23:41;32.10;68.40
19829;DHT22;10075;50.924;4.396;2022-09-03T14:26:16;32.00;68.20
19829;DHT22;10075;50.924;4.396;2022-09-03T14:28:47;31.90;69.10
19829;DHT22;10075;50.924;4.396;2022-09-03T14:31:23;31.70;69.90
19829;DHT22;10075;50.924;4.396;2022-09-03T14:34:00;31.60;69.70
19829;DHT22;10075;50.924;4.396;2022-09-03T14:36:33;31.50;70.20
19829;DHT22;10075;50.924;4.396;2022-09-03T14:39:22;31.30;70.40
19829;DHT22;10075;50.924;4.396;2022-09-03T14:45:18;31.10;70.70
19829;DHT22;10075;50.924;4.396;2022-09-03T14:48:07;31.00;71.20
19829;DHT22;10075;50.924;4.396;2022-09-03T14:50:46;30.90;71.70
19829;DHT22;10075;50.924;4.396;2022-09-03T14:53:36;30.80;72.00
19829;DHT22;10075;50.924;4.396;2022-09-03T14:56:16;30.80;71.60
19829;DHT22;10075;50.924;4.396;2022-09-03T14:59:12;31.10;71.40
19829;DHT22;10075;50.924;4.396;2022-09-03T15:01:49;31.30;70.00
19829;DHT22;10075;50.924;4.396;2022-09-03T15:04:44;31.50;69.70
19829;DHT22;10075;50.924;4.396;2022-09-03T15:07:33;32.20;70.00
19829;DHT22;10075;50.924;4.396;2022-09-03T15:10:10;33.40;67.50
19829;DHT22;10075;50.924;4.396;2022-09-03T15:12:44;34.00;63.80
19829;DHT22;10075;50.924;4.396;2022-09-03T15:15:17;33.90;63.80
19829;DHT22;10075;50.924;4.396;2022-09-03T15:18:02;33.60;64.80
19829;DHT22;10075;50.924;4.396;2022-09-03T15:20:47;33.40;64.80
19829;DHT22;10075;50.924;4.396;2022-09-03T15:23:30;33.10;64.40
19829;DHT22;10075;50.924;4.396;2022-09-03T15:26:25;32.80;66.00
19829;DHT22;10075;50.924;4.396;2022-09-03T15:31:52;32.20;68.20
19829;DHT22;10075;50.924;4.396;2022-09-03T15:34:38;32.20;68.20
19829;DHT22;10075;50.924;4.396;2022-09-03T15:37:10;32.10;68.10
19829;DHT22;10075;50.924;4.396;2022-09-03T15:39:41;32.00;68.10
19829;DHT22;10075;50.924;4.396;2022-09-03T15:42:14;31.70;68.30
19829;DHT22;10075;50.924;4.396;2022-09-03T15:44:46;31.20;69.00
19829;DHT22;10075;50.924;4.396;2022-09-03T15:47:36;30.80;70.80
19829;DHT22;10075;50.924;4.396;2022-09-03T15:50:16;30.40;71.60
19829;DHT22;10075;50.924;4.396;2022-09-03T15:52:55;30.30;72.00
19829;DHT22;10075;50.924;4.396;2022-09-03T15:55:31;30.10;72.40
19829;DHT22;10075;50.924;4.396;2022-09-03T15:58:03;29.90;72.90
19829;DHT22;10075;50.924;4.396;2022-09-03T16:00:52;29.80;74.00
19829;DHT22;10075;50.924;4.396;2022-09-03T16:03:32;29.90;74.10
19829;DHT22;10075;50.924;4.396;2022-09-03T16:06:05;30.10;72.90
19829;DHT22;10075;50.924;4.396;2022-09-03T16:08:39;30.70;72.90
19829;DHT22;10075;50.924;4.396;2022-09-03T16:11:12;32.10;70.30
19829;DHT22;10075;50.924;4.396;2022-09-03T16:13:55;32.80;68.10
19829;DHT22;10075;50.924;4.396;2022-09-03T16:16:29;33.40;66.80
19829;DHT22;10075;50.924;4.396;2022-09-03T16:19:04;34.50;65.40
19829;DHT22;10075;50.924;4.396;2022-09-03T16:21:42;35.10;63.40
19829;DHT22;10075;50.924;4.396;2022-09-03T16:24:16;35.20;62.20